Time;durP1;ratioP1;P1;durP2;ratioP2;P2;SDS_P1;SDS_P2;PMS_P1;PMS_P2;Temp;Humidity;BMP_temperature;BMP_pressure;BME280_temperature;BME280_humidity;BME280_pressure;Samples;Min_cycle;Max_cycle;Signal;HPM_P1;HPM_P2
2023/07/04 00:02:12;;;;;;;;;15.50;14.00;;;;;23.04;42.84;100385.52;110220;1250;20716;-38
2023/07/04 00:04:39;;;;;;;;;16.00;15.00;;;;;23.03;42.76;100385.39;110187;1264;22338;-38
2023/07/04 00:07:07;;;;;;;;;14.00;12.50;;;;;23.02;42.76;100384.29;110133;1249;20383;-38
2023/07/04 00:09:34;;;;;;;;;13.00;13.00;;;;;23.01;42.82;100383.70;110224;1249;22344;-38
2023/07/04 00:12:02;;;;;;;;;15.33;14.00;;;;;23.01;42.71;100385.92;110254;1250;20109;-38
2023/07/04 00:14:29;;;;;;;;;18.50;16.00;;;;;23.01;42.90;100388.66;110240;1264;18821;-38
2023/07/04 00:16:56;;;;;;;;;16.50;12.50;;;;;22.98;42.77;100390.40;110175;1264;19325;-38
2023/07/04 00:19:24;;;;;;;;;19.00;18.00;;;;;22.99;42.80;100391.61;110176;1264;18565;-38
2023/07/04 00:21:51;;;;;;;;;14.50;12.50;;;;;22.98;42.79;100392.96;110219;1257;20061;-38
2023/07/04 00:24:19;;;;;;;;;16.00;15.00;;;;;22.97;42.67;100397.70;110215;1250;20802;-39
2023/07/04 00:26:47;;;;;;;;;18.50;15.50;;;;;22.97;42.71;100392.92;110216;1265;18627;-39
2023/07/04 00:29:15;;;;;;;;;15.00;12.00;;;;;22.97;42.72;100392.03;110188;1250;20219;-39
2023/07/04 00:31:42;;;;;;;;;19.00;16.00;;;;;22.96;42.69;100396.53;110223;1264;20814;-38
2023/07/04 00:34:10;;;;;;;;;19.50;16.00;;;;;22.95;42.68;100393.38;110203;1264;18971;-39
2023/07/04 00:36:39;;;;;;;;;16.00;15.00;;;;;22.95;42.68;100396.09;110180;1249;20194;-39
2023/07/04 00:39:07;;;;;;;;;15.00;13.00;;;;;22.95;42.59;100397.57;110210;1264;19293;-38
2023/07/04 00:41:35;;;;;;;;;11.00;11.00;;;;;22.95;42.52;100396.38;110228;1251;19977;-39
2023/07/04 00:44:09;;;;;;;;;15.33;14.67;;;;;22.95;42.46;100392.90;110196;1251;18951;-38
2023/07/04 00:46:39;;;;;;;;;16.00;15.00;;;;;22.93;42.36;100399.23;110203;1250;20964;-38
2023/07/04 00:49:07;;;;;;;;;12.00;12.00;;;;;22.93;42.46;100398.02;110214;1259;18614;-38
2023/07/04 00:51:35;;;;;;;;;12.00;12.00;;;;;22.93;42.33;100394.35;110214;1250;20152;-38
2023/07/04 00:54:04;;;;;;;;;15.00;13.00;;;;;22.92;42.24;100395.74;110196;1248;20796;-38
2023/07/04 00:56:31;;;;;;;;;15.00;12.00;;;;;22.91;42.36;100396.27;110205;1250;22166;-38
2023/07/04 00:59:00;;;;;;;;;15.00;13.50;;;;;22.89;42.25;100396.55;110197;1250;20133;-39
2023/07/04 01:01:28;;;;;;;;;18.00;16.00;;;;;22.89;42.30;100399.88;110210;1248;20719;-38
2023/07/04 01:03:55;;;;;;;;;14.50;13.00;;;;;22.88;42.36;100402.34;110210;1265;19922;-38
2023/07/04 01:06:24;;;;;;;;;18.33;16.67;;;;;22.87;42.29;100405.65;110214;1250;20112;-38
2023/07/04 01:08:56;;;;;;;;;15.00;15.00;;;;;22.87;42.30;100407.51;110194;1256;21091;-39
2023/07/04 01:11:25;;;;;;;;;15.50;13.00;;;;;22.85;42.30;100403.02;110215;1248;22569;-39
2023/07/04 01:13:53;;;;;;;;;18.00;16.00;;;;;22.86;42.13;100407.90;110208;1264;18894;-38
2023/07/04 01:16:21;;;;;;;;;18.00;15.00;;;;;22.85;42.12;100402.72;110197;1250;20758;-39
2023/07/04 01:18:48;;;;;;;;;18.00;15.00;;;;;22.85;42.25;100403.27;110176;1264;18816;-38
2023/07/04 01:21:17;;;;;;;;;15.00;15.00;;;;;22.83;42.15;100400.05;110244;1265;18842;-38
2023/07/04 01:23:45;;;;;;;;;13.00;12.00;;;;;22.82;42.02;100401.56;110198;1250;19318;-39
2023/07/04 01:26:12;;;;;;;;;14.00;12.00;;;;;22.82;42.03;100396.14;110196;1264;18979;-39
2023/07/04 01:28:41;;;;;;;;;14.50;13.00;;;;;22.81;42.00;100399.15;110190;1256;20278;-39
2023/07/04 01:31:08;;;;;;;;;17.50;15.50;;;;;22.80;42.02;100399.19;110212;1264;19335;-39
2023/07/04 01:33:36;;;;;;;;;14.00;13.67;;;;;22.81;42.03;100402.30;110188;1250;20016;-39
2023/07/04 01:36:05;;;;;;;;;11.50;11.50;;;;;22.80;42.07;100403.32;110199;1256;18693;-39
2023/07/04 01:38:32;;;;;;;;;12.00;11.00;;;;;22.80;42.04;100407.77;110313;1257;20783;-38
2023/07/04 01:41:01;;;;;;;;;15.00;13.00;;;;;22.79;42.17;100404.64;110252;1256;19879;-39
2023/07/04 01:43:28;;;;;;;;;15.00;12.00;;;;;22.76;41.97;100406.09;110178;1265;22973;-38
2023/07/04 01:45:55;;;;;;;;;12.00;11.00;;;;;22.71;42.09;100405.47;110103;1256;20627;-39
2023/07/04 01:48:23;;;;;;;;;13.50;12.50;;;;;22.71;42.21;100406.94;110161;1249;20125;-39
2023/07/04 01:50:50;;;;;;;;;15.00;11.50;;;;;22.66;42.13;100405.55;110147;1250;20180;-37
2023/07/04 01:53:18;;;;;;;;;12.00;11.00;;;;;22.64;42.27;100409.89;110241;1257;20802;-39
2023/07/04 01:55:45;;;;;;;;;15.00;14.50;;;;;22.62;42.25;100407.79;110288;1250;20009;-38
2023/07/04 01:58:13;;;;;;;;;13.00;12.00;;;;;22.63;42.25;100408.46;110251;1256;21138;-38
2023/07/04 02:00:41;;;;;;;;;14.50;13.50;;;;;22.62;42.39;100411.73;110200;1264;19454;-38
2023/07/04 02:03:08;;;;;;;;;12.67;12.67;;;;;22.61;42.37;100412.83;110177;1265;22646;-38
2023/07/04 02:05:36;;;;;;;;;16.00;15.00;;;;;22.59;42.30;100414.36;110216;1250;20472;-39
2023/07/04 02:08:03;;;;;;;;;15.00;14.00;;;;;22.60;42.43;100413.75;110220;1256;20797;-39
2023/07/04 02:10:31;;;;;;;;;15.33;14.67;;;;;22.58;42.25;100412.96;110211;1265;18588;-39
2023/07/04 02:12:58;;;;;;;;;15.00;14.00;;;;;22.56;42.51;100410.97;110192;1250;20123;-39
2023/07/04 02:15:26;;;;;;;;;15.00;14.00;;;;;22.56;42.26;100411.44;110194;1251;22197;-38
2023/07/04 02:17:53;;;;;;;;;15.00;15.00;;;;;22.55;42.49;100410.51;110193;1256;19851;-38
2023/07/04 02:20:20;;;;;;;;;13.50;13.00;;;;;22.55;42.33;100409.13;110184;1250;20249;-39
2023/07/04 02:22:48;;;;;;;;;19.00;18.00;;;;;22.53;42.32;100411.87;110187;1264;20958;-38
2023/07/04 02:25:15;;;;;;;;;19.00;15.00;;;;;22.52;42.36;100410.14;110195;1249;20034;-39
2023/07/04 02:27:43;;;;;;;;;18.50;16.00;;;;;22.53;42.25;100408.42;110177;1250;20032;-39
2023/07/04 02:30:10;;;;;;;;;16.00;15.50;;;;;22.52;42.28;100409.46;110191;1250;20806;-39
2023/07/04 02:32:37;;;;;;;;;18.00;15.00;;;;;22.51;42.43;100411.67;110198;1250;22791;-38
2023/07/04 02:35:05;;;;;;;;;15.00;14.00;;;;;22.50;42.27;100409.91;110183;1250;20323;-39
2023/07/04 02:37:32;;;;;;;;;15.00;14.00;;;;;22.48;42.34;100408.63;110193;1264;19536;-38
2023/07/04 02:40:00;;;;;;;;;13.00;13.00;;;;;22.45;42.53;100408.90;110186;1250;19858;-38
2023/07/04 02:42:27;;;;;;;;;14.00;14.00;;;;;22.42;42.60;100406.79;110177;1265;21087;-38
2023/07/04 02:44:55;;;;;;;;;14.00;12.00;;;;;22.40;42.52;100410.06;110222;1250;20675;-39
2023/07/04 02:47:26;;;;;;;;;23.00;18.00;;;;;22.38;42.33;100403.50;110212;1250;20001;-38
2023/07/04 02:49:54;;;;;;;;;14.67;14.33;;;;;22.36;42.65;100405.47;110217;1251;20821;-38
2023/07/04 02:52:21;;;;;;;;;14.00;14.00;;;;;22.35;42.43;100406.00;110215;1249;20005;-40
2023/07/04 02:54:49;;;;;;;;;16.00;14.00;;;;;22.36;42.36;100409.73;110197;1250;20141;-39
2023/07/04 02:57:16;;;;;;;;;16.00;16.00;;;;;22.34;42.39;100405.46;110199;1256;20041;-39
2023/07/04 02:59:43;;;;;;;;;14.00;14.00;;;;;22.32;42.37;100406.64;110168;1264;19302;-39
2023/07/04 03:02:11;;;;;;;;;14.67;14.00;;;;;22.31;42.45;100408.48;110223;1256;19925;-38
2023/07/04 03:04:38;;;;;;;;;14.50;13.00;;;;;22.34;42.22;100409.26;110213;1250;20180;-38
2023/07/04 03:07:06;;;;;;;;;16.00;15.00;;;;;22.34;42.18;100405.52;110190;1264;19325;-39
2023/07/04 03:09:33;;;;;;;;;19.00;14.00;;;;;22.33;42.06;100406.59;110198;1263;20633;-38
2023/07/04 03:12:00;;;;;;;;;18.00;18.00;;;;;22.30;42.08;100403.92;110213;1250;21440;-38
2023/07/04 03:14:28;;;;;;;;;22.00;19.00;;;;;22.31;42.14;100408.52;110221;1249;21521;-39
2023/07/04 03:16:55;;;;;;;;;20.00;17.00;;;;;22.31;42.06;100405.12;110203;1250;19980;-39
2023/07/04 03:19:23;;;;;;;;;18.00;18.00;;;;;22.30;42.30;100406.80;110177;1264;19847;-39
2023/07/04 03:21:50;;;;;;;;;17.50;16.50;;;;;22.31;42.12;100400.20;110090;1256;21258;-39
2023/07/04 03:24:18;;;;;;;;;19.67;18.00;;;;;22.30;42.03;100395.54;110227;1265;22811;-38
2023/07/04 03:26:45;;;;;;;;;19.50;17.50;;;;;22.27;42.06;100395.74;110251;1249;20185;-38
2023/07/04 03:29:13;;;;;;;;;18.00;16.00;;;;;22.26;42.11;100395.95;110153;1264;19506;-39
2023/07/04 03:31:40;;;;;;;;;15.50;12.00;;;;;22.25;42.19;100398.63;110122;1265;20189;-39
2023/07/04 03:34:08;;;;;;;;;17.33;15.67;;;;;22.23;42.24;100396.16;110155;1250;20198;-39
2023/07/04 03:36:35;;;;;;;;;18.00;18.00;;;;;22.20;42.27;100392.33;110206;1265;21958;-39
2023/07/04 03:39:03;;;;;;;;;14.67;13.33;;;;;22.18;42.40;100387.73;110184;1265;22510;-39
2023/07/04 03:41:31;;;;;;;;;16.00;16.00;;;;;22.17;42.21;100390.39;110201;1264;18555;-39
2023/07/04 03:44:00;;;;;;;;;15.50;15.00;;;;;22.14;42.40;100382.89;110192;1249;22328;-39
2023/07/04 03:46:27;;;;;;;;;14.67;14.67;;;;;22.09;42.72;100372.88;110210;1249;20325;-39
2023/07/04 03:48:54;;;;;;;;;17.00;15.00;;;;;22.08;42.86;100369.92;110203;1257;20169;-38
2023/07/04 03:51:22;;;;;;;;;20.00;14.00;;;;;22.07;42.66;100368.86;110195;1264;22153;-39
2023/07/04 03:53:49;;;;;;;;;16.00;14.50;;;;;22.08;42.84;100371.91;110176;1250;20418;-40
2023/07/04 03:56:17;;;;;;;;;17.50;14.00;;;;;22.05;42.86;100367.91;110213;1264;18686;-39
2023/07/04 03:58:44;;;;;;;;;17.00;15.00;;;;;22.09;42.90;100372.77;110217;1264;19397;-39
2023/07/04 04:01:11;;;;;;;;;15.50;13.00;;;;;22.06;42.89;100376.91;110198;1264;18536;-39
2023/07/04 04:03:39;;;;;;;;;16.00;14.00;;;;;22.08;42.95;100386.30;110237;1250;20103;-39
2023/07/04 04:06:06;;;;;;;;;16.00;13.50;;;;;22.14;42.82;100387.05;110176;1250;20927;-39
2023/07/04 04:08:34;;;;;;;;;21.00;18.00;;;;;22.19;42.90;100389.92;110210;1249;21980;-39
2023/07/04 04:11:01;;;;;;;;;23.00;20.00;;;;;22.20;42.68;100389.22;110195;1250;20113;-39
2023/07/04 04:13:29;;;;;;;;;21.50;18.00;;;;;22.21;42.77;100380.15;110199;1249;20660;-38
2023/07/04 04:15:56;;;;;;;;;19.00;15.00;;;;;22.22;42.54;100375.83;110182;1250;20063;-38
2023/07/04 04:18:24;;;;;;;;;19.00;14.00;;;;;22.20;42.47;100367.71;110216;1250;20099;-39
2023/07/04 04:20:51;;;;;;;;;16.00;14.00;;;;;22.20;42.52;100370.52;110201;1264;19475;-39
2023/07/04 04:23:19;;;;;;;;;14.00;14.00;;;;;22.18;42.49;100371.46;110207;1249;18527;-39
2023/07/04 04:25:46;;;;;;;;;17.00;14.00;;;;;22.18;42.54;100373.07;110181;1257;20048;-38
2023/07/04 04:28:13;;;;;;;;;14.00;14.00;;;;;22.18;42.49;100383.55;110195;1257;20593;-38
2023/07/04 04:30:41;;;;;;;;;14.00;14.00;;;;;22.03;42.59;100388.77;110203;1264;18632;-38
2023/07/04 04:33:09;;;;;;;;;14.00;14.00;;;;;21.80;42.98;100386.20;110193;1264;18743;-38
2023/07/04 04:35:36;;;;;;;;;18.00;17.00;;;;;21.67;43.45;100386.95;110159;1264;19534;-38
2023/07/04 04:38:04;;;;;;;;;17.00;12.00;;;;;21.50;43.84;100384.15;110219;1265;22790;-39
2023/07/04 04:40:31;;;;;;;;;11.00;11.00;;;;;21.79;43.75;100384.71;110129;1256;19911;-39
2023/07/04 04:42:59;;;;;;;;;11.67;11.33;;;;;22.03;43.35;100386.74;110191;1250;20741;-39
2023/07/04 04:45:28;;;;;;;;;12.00;11.67;;;;;22.19;43.19;100384.63;110115;1264;18605;-39
2023/07/04 04:47:55;;;;;;;;;11.00;9.33;;;;;22.31;43.00;100383.44;110220;1264;18714;-40
2023/07/04 04:50:23;;;;;;;;;11.00;9.00;;;;;22.41;42.92;100387.61;110187;1264;19634;-39
2023/07/04 04:52:50;;;;;;;;;12.67;10.00;;;;;22.47;42.94;100389.63;110177;1265;22637;-40
2023/07/04 04:55:18;;;;;;;;;8.33;8.33;;;;;22.53;42.88;100384.35;110187;1256;20123;-39
2023/07/04 04:57:45;;;;;;;;;12.00;11.00;;;;;22.59;43.17;100382.55;110199;1256;20949;-39
2023/07/04 05:00:13;;;;;;;;;11.33;11.00;;;;;22.21;43.53;100384.42;110202;1265;18647;-38
2023/07/04 05:02:40;;;;;;;;;15.00;14.00;;;;;21.76;44.32;100379.25;110187;1250;20258;-39
2023/07/04 05:05:08;;;;;;;;;14.00;12.00;;;;;21.40;44.69;100380.61;110192;1250;20829;-39
2023/07/04 05:07:35;;;;;;;;;15.00;14.00;;;;;21.36;44.76;100379.10;110182;1264;19955;-38
2023/07/04 05:10:03;;;;;;;;;12.67;12.00;;;;;21.50;44.72;100378.65;110179;1256;20295;-38
2023/07/04 05:12:30;;;;;;;;;14.00;14.00;;;;;21.43;44.73;100381.78;110195;1264;19644;-38
2023/07/04 05:14:58;;;;;;;;;11.00;11.00;;;;;21.39;44.84;100381.95;110196;1264;18640;-39
2023/07/04 05:17:25;;;;;;;;;10.00;10.00;;;;;21.42;44.53;100379.21;110200;1264;22204;-38
2023/07/04 05:19:53;;;;;;;;;13.00;11.00;;;;;21.44;44.58;100376.16;110198;1249;20727;-38
2023/07/04 05:22:20;;;;;;;;;12.00;12.00;;;;;21.47;44.57;100378.23;110225;1264;18588;-39
2023/07/04 05:24:47;;;;;;;;;19.67;18.00;;;;;21.46;44.43;100382.50;110184;1265;18719;-39
2023/07/04 05:27:15;;;;;;;;;16.50;16.00;;;;;21.62;44.57;100381.79;110181;1248;21564;-38
2023/07/04 05:29:43;;;;;;;;;15.00;14.00;;;;;21.99;43.90;100381.23;110173;1250;19997;-40
2023/07/04 05:32:10;;;;;;;;;14.00;12.00;;;;;22.22;43.72;100380.89;110196;1250;20170;-40
2023/07/04 05:34:38;;;;;;;;;16.00;14.00;;;;;22.40;43.80;100385.20;110186;1256;20673;-40
2023/07/04 05:37:05;;;;;;;;;14.00;13.00;;;;;22.54;43.89;100383.42;110203;1250;19981;-39
2023/07/04 05:39:32;;;;;;;;;11.00;11.00;;;;;22.62;43.81;100382.45;110064;1250;20242;-39
2023/07/04 05:42:00;;;;;;;;;11.00;11.00;;;;;22.69;43.74;100383.30;110157;1248;22750;-38
2023/07/04 05:44:27;;;;;;;;;11.00;11.00;;;;;22.71;44.02;100381.27;110215;1250;18686;-39
2023/07/04 05:46:55;;;;;;;;;9.00;9.00;;;;;22.72;43.96;100383.45;110189;1250;20104;-39
2023/07/04 05:49:22;;;;;;;;;14.50;12.00;;;;;22.79;44.08;100385.06;110192;1249;19483;-41
2023/07/04 05:51:49;;;;;;;;;17.33;14.00;;;;;22.89;44.32;100389.99;110163;1264;18433;-38
2023/07/04 05:54:17;;;;;;;;;21.00;18.33;;;;;22.93;44.41;100387.04;110201;1249;22156;-38
2023/07/04 05:56:44;;;;;;;;;55.50;39.00;;;;;22.93;44.40;100383.96;110200;1264;19331;-38
2023/07/04 05:59:12;;;;;;;;;56.50;43.00;;;;;22.94;44.38;100384.45;110204;1264;18615;-39
2023/07/04 06:01:39;;;;;;;;;76.00;54.00;;;;;22.97;44.35;100382.66;110202;1250;20028;-38
2023/07/04 06:04:07;;;;;;;;;75.50;57.00;;;;;22.99;44.51;100380.69;110179;1250;20710;-40
2023/07/04 06:06:35;;;;;;;;;78.67;56.67;;;;;23.00;44.60;100377.09;110192;1250;20356;-40
2023/07/04 06:09:02;;;;;;;;;70.00;53.00;;;;;23.06;44.50;100376.53;110208;1264;20494;-40
2023/07/04 06:11:30;;;;;;;;;57.50;44.00;;;;;23.07;44.52;100380.41;110189;1264;22059;-39
2023/07/04 06:13:57;;;;;;;;;47.00;36.50;;;;;23.07;44.55;100378.00;110208;1264;18644;-40
2023/07/04 06:16:24;;;;;;;;;45.33;36.33;;;;;23.07;44.65;100379.98;110148;1264;20466;-39
2023/07/04 06:18:52;;;;;;;;;34.00;30.00;;;;;23.06;44.49;100379.55;110256;1264;19559;-39
2023/07/04 06:21:19;;;;;;;;;30.50;27.50;;;;;23.08;44.34;100376.00;110186;1250;20074;-39
2023/07/04 06:23:47;;;;;;;;;26.00;23.00;;;;;23.09;44.40;100373.11;110189;1250;18942;-39
2023/07/04 06:26:14;;;;;;;;;29.00;24.50;;;;;23.10;44.22;100379.54;110221;1264;20753;-40
2023/07/04 06:28:42;;;;;;;;;23.00;19.00;;;;;23.12;44.31;100372.05;110181;1265;19965;-39
2023/07/04 06:31:10;;;;;;;;;23.33;21.00;;;;;23.11;44.35;100371.00;110182;1265;18945;-39
2023/07/04 06:33:37;;;;;;;;;13.00;12.50;;;;;23.13;44.30;100369.84;110207;1249;22060;-39
2023/07/04 06:36:04;;;;;;;;;18.33;15.33;;;;;23.15;44.18;100371.45;110194;1264;22080;-39
2023/07/04 06:38:32;;;;;;;;;15.50;12.50;;;;;23.15;44.13;100367.92;110210;1260;20380;-39
2023/07/04 06:40:59;;;;;;;;;11.00;11.00;;;;;23.09;43.70;100364.94;110193;1264;20778;-39
2023/07/04 06:43:27;;;;;;;;;13.00;12.00;;;;;23.01;43.34;100364.59;110196;1265;20114;-39
2023/07/04 06:45:54;;;;;;;;;13.00;11.00;;;;;22.95;43.01;100356.40;110199;1264;19985;-39
2023/07/04 06:48:22;;;;;;;;;9.00;9.00;;;;;22.99;42.94;100357.35;110226;1256;20930;-39
2023/07/04 06:50:50;;;;;;;;;9.00;9.00;;;;;23.01;42.74;100358.58;110149;1250;19916;-39
2023/07/04 06:53:17;;;;;;;;;11.00;11.00;;;;;23.08;42.82;100361.57;110108;1264;20313;-40
2023/07/04 06:55:44;;;;;;;;;8.00;8.00;;;;;23.11;42.59;100356.58;110202;1265;22041;-39
2023/07/04 06:58:14;;;;;;;;;6.00;6.00;;;;;23.12;42.23;100359.91;110246;1256;19217;-40
2023/07/04 07:00:41;;;;;;;;;8.50;8.50;;;;;23.13;42.24;100357.07;110185;1249;20999;-39
2023/07/04 07:03:09;;;;;;;;;8.50;8.50;;;;;23.18;42.14;100361.55;110111;1264;178661;-40
2023/07/04 07:05:36;;;;;;;;;11.00;9.00;;;;;23.19;41.95;100362.66;110120;1265;18520;-40
2023/07/04 07:08:04;;;;;;;;;9.00;8.00;;;;;23.18;41.97;100362.13;110113;1250;18993;-40
2023/07/04 07:10:32;;;;;;;;;11.00;9.00;;;;;23.22;41.88;100357.06;110202;1264;20870;-40
2023/07/04 07:12:59;;;;;;;;;6.50;6.50;;;;;23.35;41.75;100358.02;110229;1256;19501;-40
2023/07/04 07:15:26;;;;;;;;;8.00;8.00;;;;;23.35;41.73;100363.73;110061;1265;19817;-40
2023/07/04 07:17:54;;;;;;;;;6.00;6.00;;;;;23.32;41.61;100360.95;110188;1249;20701;-40
2023/07/04 07:20:21;;;;;;;;;9.00;8.00;;;;;23.35;41.24;100360.41;110122;1265;19948;-40
2023/07/04 07:22:49;;;;;;;;;8.00;8.00;;;;;23.38;41.39;100364.39;110122;1249;19936;-41
2023/07/04 07:25:16;;;;;;;;;8.50;8.50;;;;;23.40;41.34;100356.64;110168;1249;19354;-40
2023/07/04 07:27:44;;;;;;;;;9.00;9.00;;;;;23.40;41.32;100353.31;110222;1264;18567;-39
2023/07/04 07:30:11;;;;;;;;;8.00;8.00;;;;;23.39;40.95;100350.75;110292;1264;22795;-39
2023/07/04 07:32:38;;;;;;;;;7.00;7.00;;;;;23.48;40.79;100351.96;110157;1250;20683;-40
2023/07/04 07:35:06;;;;;;;;;11.00;11.00;;;;;23.52;40.52;100352.86;110264;1250;18490;-39
2023/07/04 07:37:33;;;;;;;;;10.00;8.00;;;;;23.53;40.75;100350.71;110280;1264;18696;-39
2023/07/04 07:40:01;;;;;;;;;8.00;8.00;;;;;23.57;40.75;100351.08;110163;1250;20693;-40
2023/07/04 07:42:28;;;;;;;;;9.00;6.00;;;;;23.56;40.50;100348.76;110053;1256;20003;-40
2023/07/04 07:44:56;;;;;;;;;8.00;8.00;;;;;23.52;40.67;100352.02;110146;1249;20107;-41
2023/07/04 07:47:23;;;;;;;;;9.00;9.00;;;;;23.54;40.67;100348.58;110148;1264;19395;-40
2023/07/04 07:49:50;;;;;;;;;9.00;9.00;;;;;23.55;40.70;100347.07;110127;1249;22147;-39
2023/07/04 07:52:18;;;;;;;;;8.00;8.00;;;;;23.64;40.43;100341.23;109977;1264;18767;-39
2023/07/04 07:54:45;;;;;;;;;9.00;8.00;;;;;23.68;40.37;100348.38;110064;1256;22091;-39
2023/07/04 07:57:13;;;;;;;;;9.00;8.00;;;;;23.71;40.37;100350.32;110235;1250;19632;-38
2023/07/04 07:59:40;;;;;;;;;8.00;8.00;;;;;23.75;40.20;100350.37;110217;1250;20522;-39
2023/07/04 08:02:07;;;;;;;;;6.00;6.00;;;;;23.80;40.13;100344.11;110224;1250;20813;-39
2023/07/04 08:04:35;;;;;;;;;12.00;9.00;;;;;23.80;40.26;100347.73;110166;1264;18427;-38
2023/07/04 08:07:02;;;;;;;;;8.50;8.00;;;;;23.81;40.17;100344.87;110233;1249;20438;-40
2023/07/04 08:09:30;;;;;;;;;8.00;8.00;;;;;23.82;40.18;100342.68;110189;1248;19578;-39
2023/07/04 08:12:00;;;;;;;;;9.00;9.00;;;;;23.82;40.05;100341.24;110185;1250;18710;-39
2023/07/04 08:14:28;;;;;;;;;8.00;8.00;;;;;23.87;39.88;100344.80;110149;1265;18593;-39
2023/07/04 08:16:55;;;;;;;;;8.00;6.00;;;;;23.90;39.89;100340.67;110062;1264;20831;-39
2023/07/04 08:19:24;;;;;;;;;9.00;8.00;;;;;23.88;39.91;100343.79;110156;1264;18620;-39
2023/07/04 08:21:52;;;;;;;;;9.00;8.00;;;;;23.89;39.77;100342.27;110191;1250;21074;-39
2023/07/04 08:24:21;;;;;;;;;8.00;8.00;;;;;23.88;39.64;100344.88;110276;1264;20052;-38
2023/07/04 08:26:50;;;;;;;;;9.00;9.00;;;;;23.91;39.32;100342.96;110224;1248;19559;-39
2023/07/04 08:29:18;;;;;;;;;9.00;8.00;;;;;23.92;39.44;100335.98;110266;1264;18584;-39
2023/07/04 08:31:48;;;;;;;;;8.50;8.50;;;;;23.92;39.51;100337.79;110207;1265;19715;-39
2023/07/04 08:34:16;;;;;;;;;14.00;11.00;;;;;23.97;39.31;100339.21;110211;1250;19357;-39
2023/07/04 08:36:49;;;;;;;;;8.50;8.00;;;;;23.98;39.17;100348.70;110181;1264;19740;-38
2023/07/04 08:39:26;;;;;;;;;12.00;12.00;;;;;23.98;39.33;100335.18;110261;1264;20103;-38
2023/07/04 08:41:56;;;;;;;;;10.00;9.00;;;;;24.02;39.15;100335.77;110230;1264;19623;-39
2023/07/04 08:44:24;;;;;;;;;10.00;10.00;;;;;24.04;39.03;100338.89;110243;1264;23467;-39
2023/07/04 08:46:54;;;;;;;;;12.50;12.00;;;;;24.06;39.15;100336.88;110191;1264;19452;-39
2023/07/04 08:49:23;;;;;;;;;12.00;10.00;;;;;24.13;39.33;100331.29;110266;1264;22659;-40
2023/07/04 08:51:51;;;;;;;;;8.00;8.00;;;;;24.07;39.24;100338.06;110212;1250;21923;-40
2023/07/04 08:54:18;;;;;;;;;10.00;10.00;;;;;24.03;39.63;100339.61;110223;1265;20648;-40
2023/07/04 08:56:46;;;;;;;;;10.00;10.00;;;;;24.13;39.29;100335.11;110113;1265;22174;-38
2023/07/04 08:59:21;;;;;;;;;16.00;11.00;;;;;24.18;39.17;100336.13;110203;1264;20401;-38
2023/07/04 09:01:49;;;;;;;;;15.00;13.00;;;;;24.19;39.15;100338.88;110260;1250;21912;-39
2023/07/04 09:04:18;;;;;;;;;13.00;12.00;;;;;24.21;39.14;100339.05;110250;1264;19939;-39
2023/07/04 09:06:45;;;;;;;;;13.00;12.00;;;;;24.28;39.43;100333.27;110243;1264;19994;-38
2023/07/04 09:09:14;;;;;;;;;13.00;12.00;;;;;24.28;39.47;100344.10;110205;1264;19311;-39
2023/07/04 09:11:43;;;;;;;;;12.50;11.00;;;;;24.21;39.60;100342.11;110222;1250;21920;-40
2023/07/04 09:14:10;;;;;;;;;10.00;10.00;;;;;24.14;39.95;100334.99;110220;1264;20264;-39
2023/07/04 09:16:38;;;;;;;;;13.50;13.00;;;;;24.17;40.15;100340.00;110191;1250;19309;-39
2023/07/04 09:19:06;;;;;;;;;12.00;12.00;;;;;24.21;40.25;100342.23;110194;1264;19947;-40
2023/07/04 09:21:33;;;;;;;;;13.00;12.00;;;;;24.18;40.20;100341.82;110186;1264;21235;-40
2023/07/04 09:24:01;;;;;;;;;13.50;13.00;;;;;24.19;40.24;100341.27;110231;1256;20585;-39
2023/07/04 09:26:29;;;;;;;;;10.00;10.00;;;;;24.20;40.61;100341.61;110202;1265;21985;-39
2023/07/04 09:28:56;;;;;;;;;11.33;10.67;;;;;24.33;40.92;100341.38;110184;1264;20308;-40
2023/07/04 09:31:24;;;;;;;;;12.00;9.00;;;;;24.36;41.20;100346.06;110249;1264;19813;-37
2023/07/04 09:33:52;;;;;;;;;13.00;10.00;;;;;24.35;41.41;100343.48;110261;1264;18593;-38
2023/07/04 09:36:19;;;;;;;;;10.00;9.00;;;;;24.30;41.59;100339.13;110266;1265;18723;-38
2023/07/04 09:38:48;;;;;;;;;12.50;10.00;;;;;24.27;41.50;100339.98;110214;1264;19313;-39
2023/07/04 09:41:15;;;;;;;;;12.00;10.67;;;;;24.22;41.41;100343.89;110184;1264;18621;-39
2023/07/04 09:43:42;;;;;;;;;17.00;14.00;;;;;24.27;41.92;100346.92;110175;1250;20306;-39
2023/07/04 09:46:10;;;;;;;;;13.00;13.00;;;;;24.44;41.62;100355.44;110212;1250;19309;-39
2023/07/04 09:48:37;;;;;;;;;14.00;14.00;;;;;24.46;41.49;100341.83;110197;1265;22010;-39
2023/07/04 09:51:05;;;;;;;;;13.00;12.33;;;;;24.61;41.67;100339.31;110193;1249;19020;-38
2023/07/04 09:53:34;;;;;;;;;13.00;13.00;;;;;24.55;41.72;100344.92;110217;1265;22155;-38
2023/07/04 09:56:02;;;;;;;;;13.50;12.00;;;;;24.52;41.77;100350.13;110161;1264;18814;-40
2023/07/04 09:58:29;;;;;;;;;14.00;13.00;;;;;24.51;41.53;100350.42;110272;1256;20227;-37
2023/07/04 10:00:57;;;;;;;;;18.00;13.50;;;;;24.42;41.21;100359.35;110271;1250;22344;-37
2023/07/04 10:03:25;;;;;;;;;13.00;12.00;;;;;24.40;41.38;100363.11;110272;1257;20022;-38
2023/07/04 10:05:52;;;;;;;;;17.00;14.00;;;;;24.36;41.36;100362.84;110277;1250;20198;-40
2023/07/04 10:08:20;;;;;;;;;16.33;13.33;;;;;24.33;41.71;100364.13;110255;1265;21097;-37
2023/07/04 10:10:48;;;;;;;;;16.00;14.00;;;;;24.42;41.76;100360.20;110288;1249;20091;-38
2023/07/04 10:13:15;;;;;;;;;17.00;16.00;;;;;24.40;41.62;100365.80;110257;1250;21507;-39
2023/07/04 10:15:42;;;;;;;;;17.00;16.00;;;;;24.41;41.73;100355.85;110241;1265;19539;-39
2023/07/04 10:18:10;;;;;;;;;18.00;16.00;;;;;24.49;41.68;100355.61;110241;1264;19878;-39
2023/07/04 10:20:37;;;;;;;;;16.00;14.00;;;;;24.55;41.66;100360.32;110261;1250;20140;-38
2023/07/04 10:23:05;;;;;;;;;17.00;15.00;;;;;24.65;41.58;100365.09;110254;1265;23879;-40
2023/07/04 10:25:32;;;;;;;;;18.00;16.00;;;;;24.70;41.48;100362.92;110165;1250;20095;-40
2023/07/04 10:27:59;;;;;;;;;17.00;16.00;;;;;24.73;41.55;100362.59;110236;1264;21544;-40
2023/07/04 10:30:29;;;;;;;;;18.00;16.00;;;;;24.82;41.22;100373.80;110219;1261;19315;-40
2023/07/04 10:32:57;;;;;;;;;17.00;16.00;;;;;24.71;40.65;100363.77;110214;1249;20090;-39
2023/07/04 10:35:24;;;;;;;;;21.00;18.00;;;;;24.83;39.57;100368.32;110209;1264;21601;-40
2023/07/04 10:37:52;;;;;;;;;14.00;14.00;;;;;24.92;39.28;100370.74;110207;1250;20766;-40
2023/07/04 10:40:19;;;;;;;;;20.00;17.00;;;;;24.91;39.56;100359.66;110207;1264;20295;-41
2023/07/04 10:42:47;;;;;;;;;26.33;17.00;;;;;24.87;39.80;100363.88;110199;1250;20069;-40
2023/07/04 10:45:14;;;;;;;;;14.00;13.00;;;;;24.96;39.93;100365.17;110087;1265;20843;-41
2023/07/04 10:47:42;;;;;;;;;453.50;453.00;;;;;24.82;40.19;100367.34;110201;1264;19934;-41
2023/07/04 10:50:09;;;;;;;;;20.00;18.00;;;;;24.71;40.17;100370.21;110175;1264;22291;-41
2023/07/04 10:52:38;;;;;;;;;16.50;15.00;;;;;24.79;40.19;100370.89;110221;1250;20654;-40
2023/07/04 10:55:06;;;;;;;;;18.00;15.00;;;;;24.90;40.08;100373.95;110242;1249;19950;-40
2023/07/04 10:57:34;;;;;;;;;19.00;17.50;;;;;24.95;40.24;100371.80;110157;1249;20178;-40
2023/07/04 11:00:01;;;;;;;;;17.00;15.00;;;;;24.85;40.20;100377.45;110234;1265;20734;-40
2023/07/04 11:02:29;;;;;;;;;17.00;16.00;;;;;24.81;40.20;100375.65;110183;1264;20006;-40
2023/07/04 11:04:57;;;;;;;;;15.00;14.00;;;;;24.80;40.24;100377.42;110252;1250;20067;-40
2023/07/04 11:07:25;;;;;;;;;17.00;16.00;;;;;24.74;40.48;100382.11;110237;1264;20739;-40